ISR564 LGAV-LLBG
Flight info
| Callsign | ISR564 |
|---|---|
| Flight time | 1h 32m |
| Altitude | 37000 |
| Route | KEA N132 TUXEM UT514 PEXAN UM601 MADEX UN132 KUPIS UN134 VANZA DCT PIKOG L609 ZUKKO |
| Aircraft | A320/M-SDE2FGIJ1LORVWY/SB1 |
Departure
| Time | 2026-05-05 16:18 |
|---|---|
| Airport | Athens Eleftherios Venizelos International Airport (LGAV) |
Arrival
| Time | 2026-05-05 17:50 |
|---|---|
| Airport | Ben Gurion International Airport (LLBG) |
| Time | Latitude | Longitude | Altitude | Speed | Heading |
|---|---|---|---|---|---|
| 2026-05-05 15:41 | 37.92804 | 23.94047 | 302 ft | 0 kts | 37° |
| 2026-05-05 16:07 | 37.92797 | 23.94040 | 301 ft | 4 kts | 37° |
| 2026-05-05 16:07 | 37.92776 | 23.94020 | 303 ft | 3 kts | 37° |
| 2026-05-05 16:08 | 37.92760 | 23.94003 | 301 ft | 4 kts | 55° |
| 2026-05-05 16:08 | 37.92752 | 23.93974 | 301 ft | 4 kts | 105° |
| 2026-05-05 16:08 | 37.92757 | 23.93957 | 301 ft | 0 kts | 127° |
| 2026-05-05 16:10 | 37.92756 | 23.93959 | 301 ft | 2 kts | 127° |
| 2026-05-05 16:11 | 37.92715 | 23.94028 | 302 ft | 15 kts | 128° |
| 2026-05-05 16:11 | 37.92728 | 23.94407 | 302 ft | 30 kts | 37° |
| 2026-05-05 16:12 | 37.92884 | 23.94555 | 302 ft | 28 kts | 36° |
| 2026-05-05 16:12 | 37.93182 | 23.94834 | 300 ft | 28 kts | 38° |
| 2026-05-05 16:13 | 37.93632 | 23.95264 | 300 ft | 27 kts | 37° |
| 2026-05-05 16:13 | 37.93781 | 23.95406 | 296 ft | 27 kts | 36° |
| 2026-05-05 16:13 | 37.93936 | 23.95553 | 299 ft | 29 kts | 37° |
| 2026-05-05 16:14 | 37.94224 | 23.95826 | 300 ft | 26 kts | 38° |
| 2026-05-05 16:14 | 37.94506 | 23.96093 | 302 ft | 26 kts | 37° |
| 2026-05-05 16:15 | 37.94810 | 23.96381 | 302 ft | 26 kts | 37° |
| 2026-05-05 16:15 | 37.95118 | 23.96674 | 302 ft | 25 kts | 37° |
| 2026-05-05 16:16 | 37.95279 | 23.96928 | 306 ft | 17 kts | 124° |
| 2026-05-05 16:16 | 37.95163 | 23.96996 | 310 ft | 1 kts | 216° |
| 2026-05-05 16:17 | 37.95129 | 23.96963 | 310 ft | 19 kts | 217° |
| 2026-05-05 16:17 | 37.94793 | 23.96643 | 301 ft | 89 kts | 216° |
| 2026-05-05 16:18 | 37.93259 | 23.95181 | 418 ft | 171 kts | 217° |
| 2026-05-05 16:18 | 37.92319 | 23.94280 | 1010 ft | 170 kts | 214° |
| 2026-05-05 16:18 | 37.90237 | 23.92850 | 2246 ft | 179 kts | 206° |
| 2026-05-05 16:19 | 37.89040 | 23.92110 | 2565 ft | 203 kts | 207° |
| 2026-05-05 16:19 | 37.87705 | 23.91271 | 2916 ft | 226 kts | 209° |
| 2026-05-05 16:19 | 37.84718 | 23.89347 | 4087 ft | 256 kts | 205° |
| 2026-05-05 16:20 | 37.81082 | 23.89899 | 5379 ft | 287 kts | 141° |
| 2026-05-05 16:20 | 37.78236 | 23.93544 | 7090 ft | 295 kts | 131° |
| 2026-05-05 16:21 | 37.75396 | 23.97359 | 8733 ft | 301 kts | 131° |
| 2026-05-05 16:22 | 37.70955 | 24.03270 | 10595 ft | 332 kts | 131° |
| 2026-05-05 16:22 | 37.67632 | 24.07657 | 11603 ft | 353 kts | 131° |
| 2026-05-05 16:23 | 37.64195 | 24.12179 | 12950 ft | 360 kts | 131° |
| 2026-05-05 16:23 | 37.62452 | 24.14467 | 13565 ft | 364 kts | 131° |
| 2026-05-05 16:23 | 37.58904 | 24.19135 | 14805 ft | 372 kts | 131° |
| 2026-05-05 16:24 | 37.57101 | 24.21511 | 15401 ft | 377 kts | 131° |
| 2026-05-05 16:24 | 37.55281 | 24.23909 | 15992 ft | 380 kts | 131° |
| 2026-05-05 16:24 | 37.51600 | 24.28793 | 17092 ft | 389 kts | 131° |
| 2026-05-05 16:25 | 37.49711 | 24.31249 | 17670 ft | 392 kts | 132° |
| 2026-05-05 16:25 | 37.45875 | 24.36214 | 18738 ft | 400 kts | 132° |
| 2026-05-05 16:25 | 37.43955 | 24.38710 | 19264 ft | 405 kts | 132° |
| 2026-05-05 16:26 | 37.40033 | 24.43835 | 20295 ft | 413 kts | 132° |
| 2026-05-05 16:26 | 37.36000 | 24.49099 | 21279 ft | 422 kts | 132° |
| 2026-05-05 16:27 | 37.33952 | 24.51766 | 21750 ft | 426 kts | 133° |
| 2026-05-05 16:27 | 37.31881 | 24.54458 | 22215 ft | 430 kts | 133° |
| 2026-05-05 16:27 | 37.29791 | 24.57169 | 22682 ft | 434 kts | 133° |
| 2026-05-05 16:27 | 37.27681 | 24.59905 | 23150 ft | 438 kts | 133° |
| 2026-05-05 16:28 | 37.25553 | 24.62665 | 23599 ft | 441 kts | 133° |
| 2026-05-05 16:28 | 37.23411 | 24.65443 | 24032 ft | 445 kts | 133° |
| 2026-05-05 16:28 | 37.21245 | 24.68248 | 24451 ft | 449 kts | 133° |
| 2026-05-05 16:28 | 37.19061 | 24.71071 | 24868 ft | 452 kts | 133° |
| 2026-05-05 16:29 | 37.16862 | 24.73912 | 25288 ft | 455 kts | 133° |
| 2026-05-05 16:29 | 37.14649 | 24.76773 | 25670 ft | 459 kts | 133° |
| 2026-05-05 16:29 | 37.12420 | 24.79650 | 26048 ft | 462 kts | 133° |
| 2026-05-05 16:29 | 37.10169 | 24.82547 | 26419 ft | 465 kts | 133° |
| 2026-05-05 16:30 | 37.07940 | 24.85417 | 26775 ft | 468 kts | 133° |
| 2026-05-05 16:30 | 37.05656 | 24.88356 | 27119 ft | 471 kts | 133° |
| 2026-05-05 16:30 | 37.03362 | 24.91303 | 27472 ft | 473 kts | 133° |
| 2026-05-05 16:30 | 37.01058 | 24.94259 | 27822 ft | 476 kts | 133° |
| 2026-05-05 16:31 | 36.98735 | 24.97243 | 28146 ft | 479 kts | 133° |
| 2026-05-05 16:31 | 36.96406 | 25.00234 | 28478 ft | 482 kts | 133° |
| 2026-05-05 16:31 | 36.94056 | 25.03246 | 28813 ft | 484 kts | 133° |
| 2026-05-05 16:31 | 36.91697 | 25.06266 | 29125 ft | 487 kts | 133° |
| 2026-05-05 16:32 | 36.90124 | 25.08276 | 29337 ft | 489 kts | 133° |
| 2026-05-05 16:32 | 36.87739 | 25.11323 | 29637 ft | 492 kts | 133° |
| 2026-05-05 16:32 | 36.85337 | 25.14390 | 29935 ft | 494 kts | 133° |
| 2026-05-05 16:32 | 36.82927 | 25.17462 | 30231 ft | 497 kts | 134° |
| 2026-05-05 16:33 | 36.80503 | 25.20551 | 30548 ft | 499 kts | 134° |
| 2026-05-05 16:33 | 36.78066 | 25.23651 | 30842 ft | 501 kts | 134° |
| 2026-05-05 16:33 | 36.75611 | 25.26767 | 31187 ft | 502 kts | 134° |
| 2026-05-05 16:33 | 36.73165 | 25.29869 | 31617 ft | 501 kts | 134° |
| 2026-05-05 16:34 | 36.70780 | 25.32896 | 32006 ft | 501 kts | 134° |
| 2026-05-05 16:34 | 36.68340 | 25.35990 | 32417 ft | 500 kts | 134° |
| 2026-05-05 16:34 | 36.65938 | 25.39031 | 32810 ft | 498 kts | 134° |
| 2026-05-05 16:34 | 36.63497 | 25.42100 | 33185 ft | 498 kts | 135° |
| 2026-05-05 16:35 | 36.61032 | 25.45133 | 33559 ft | 498 kts | 135° |
| 2026-05-05 16:35 | 36.58540 | 25.48146 | 33927 ft | 497 kts | 136° |
| 2026-05-05 16:35 | 36.56046 | 25.51134 | 34282 ft | 497 kts | 136° |
| 2026-05-05 16:35 | 36.53551 | 25.54119 | 34634 ft | 497 kts | 136° |
| 2026-05-05 16:36 | 36.51062 | 25.57107 | 34967 ft | 496 kts | 136° |
| 2026-05-05 16:36 | 36.48581 | 25.60095 | 35286 ft | 496 kts | 136° |
| 2026-05-05 16:36 | 36.46111 | 25.63081 | 35595 ft | 496 kts | 136° |
| 2026-05-05 16:36 | 36.43675 | 25.66030 | 35891 ft | 496 kts | 136° |
| 2026-05-05 16:37 | 36.41202 | 25.69019 | 36178 ft | 496 kts | 136° |
| 2026-05-05 16:37 | 36.38725 | 25.72006 | 36460 ft | 495 kts | 136° |
| 2026-05-05 16:37 | 36.36255 | 25.74983 | 36748 ft | 495 kts | 136° |
| 2026-05-05 16:37 | 36.33789 | 25.77954 | 37027 ft | 494 kts | 136° |
| 2026-05-05 16:38 | 36.28854 | 25.83920 | 37004 ft | 492 kts | 136° |
| 2026-05-05 16:38 | 36.24197 | 25.90071 | 37091 ft | 489 kts | 124° |
| 2026-05-05 16:39 | 36.20985 | 25.97457 | 37082 ft | 487 kts | 112° |
| 2026-05-05 16:39 | 36.18135 | 26.05061 | 37078 ft | 487 kts | 113° |
| 2026-05-05 16:40 | 36.15243 | 26.12641 | 37072 ft | 487 kts | 113° |
| 2026-05-05 16:40 | 36.12343 | 26.20214 | 37073 ft | 487 kts | 113° |
| 2026-05-05 16:41 | 36.09456 | 26.27792 | 37079 ft | 488 kts | 113° |
| 2026-05-05 16:41 | 36.06555 | 26.35397 | 37074 ft | 494 kts | 113° |
| 2026-05-05 16:42 | 36.03585 | 26.43076 | 37103 ft | 503 kts | 114° |
| 2026-05-05 16:42 | 36.00522 | 26.50932 | 37065 ft | 510 kts | 113° |
| 2026-05-05 16:43 | 35.97510 | 26.58873 | 37064 ft | 511 kts | 113° |
| 2026-05-05 16:43 | 35.94476 | 26.66821 | 37063 ft | 512 kts | 114° |
| 2026-05-05 16:44 | 35.91405 | 26.74747 | 37064 ft | 511 kts | 114° |
| 2026-05-05 16:44 | 35.88325 | 26.82655 | 37072 ft | 512 kts | 114° |
| 2026-05-05 16:45 | 35.85241 | 26.90569 | 37080 ft | 512 kts | 114° |
| 2026-05-05 16:45 | 35.82146 | 26.98477 | 37078 ft | 512 kts | 115° |
| 2026-05-05 16:46 | 35.79067 | 27.06317 | 37077 ft | 511 kts | 115° |
| 2026-05-05 16:46 | 35.75968 | 27.14198 | 37077 ft | 511 kts | 115° |
| 2026-05-05 16:47 | 35.72967 | 27.21821 | 37075 ft | 511 kts | 115° |
| 2026-05-05 16:47 | 35.69863 | 27.29668 | 37069 ft | 509 kts | 115° |
| 2026-05-05 16:48 | 35.66970 | 27.37595 | 37044 ft | 504 kts | 111° |
| 2026-05-05 16:48 | 35.64387 | 27.45594 | 37068 ft | 502 kts | 110° |
| 2026-05-05 16:49 | 35.61890 | 27.53364 | 37049 ft | 482 kts | 111° |
| 2026-05-05 16:49 | 35.59332 | 27.61064 | 37047 ft | 493 kts | 111° |
| 2026-05-05 16:50 | 35.56676 | 27.68905 | 37043 ft | 499 kts | 111° |
| 2026-05-05 16:50 | 35.53997 | 27.76778 | 37043 ft | 500 kts | 111° |
| 2026-05-05 16:51 | 35.51331 | 27.84654 | 37045 ft | 500 kts | 111° |
| 2026-05-05 16:51 | 35.48669 | 27.92535 | 37033 ft | 500 kts | 111° |
| 2026-05-05 16:52 | 35.45996 | 28.00406 | 37041 ft | 500 kts | 111° |
| 2026-05-05 16:52 | 35.43303 | 28.08290 | 37044 ft | 501 kts | 112° |
| 2026-05-05 16:53 | 35.40606 | 28.16171 | 37050 ft | 501 kts | 112° |
| 2026-05-05 16:53 | 35.37910 | 28.24049 | 37042 ft | 501 kts | 112° |
| 2026-05-05 16:54 | 35.35221 | 28.31874 | 37027 ft | 502 kts | 112° |
| 2026-05-05 16:54 | 35.32507 | 28.39746 | 37018 ft | 502 kts | 112° |
| 2026-05-05 16:55 | 35.29787 | 28.47614 | 37015 ft | 502 kts | 112° |
| 2026-05-05 16:55 | 35.27063 | 28.55488 | 37011 ft | 503 kts | 112° |
| 2026-05-05 16:56 | 35.24326 | 28.63363 | 37013 ft | 503 kts | 112° |
| 2026-05-05 16:56 | 35.21581 | 28.71246 | 37012 ft | 503 kts | 112° |
| 2026-05-05 16:57 | 35.18835 | 28.79119 | 37011 ft | 503 kts | 113° |
| 2026-05-05 16:57 | 35.16087 | 28.86992 | 37018 ft | 504 kts | 113° |
| 2026-05-05 16:58 | 35.13321 | 28.94867 | 37022 ft | 504 kts | 113° |
| 2026-05-05 16:58 | 35.10569 | 29.02686 | 37023 ft | 504 kts | 113° |
| 2026-05-05 16:59 | 35.07792 | 29.10549 | 37022 ft | 504 kts | 113° |
| 2026-05-05 16:59 | 35.05019 | 29.18412 | 37012 ft | 504 kts | 113° |
| 2026-05-05 17:00 | 35.02231 | 29.26280 | 37012 ft | 505 kts | 113° |
| 2026-05-05 17:00 | 34.99439 | 29.34141 | 37008 ft | 505 kts | 114° |
| 2026-05-05 17:01 | 34.96634 | 29.41999 | 37005 ft | 505 kts | 114° |
| 2026-05-05 17:01 | 34.93837 | 29.49849 | 37009 ft | 505 kts | 114° |
| 2026-05-05 17:02 | 34.91038 | 29.57704 | 37014 ft | 506 kts | 114° |
| 2026-05-05 17:02 | 34.88238 | 29.65513 | 37017 ft | 506 kts | 114° |
| 2026-05-05 17:03 | 34.85414 | 29.73353 | 37015 ft | 506 kts | 114° |
| 2026-05-05 17:03 | 34.82585 | 29.81193 | 37017 ft | 505 kts | 114° |
| 2026-05-05 17:04 | 34.79758 | 29.89031 | 37015 ft | 506 kts | 114° |
| 2026-05-05 17:04 | 34.76919 | 29.96870 | 37016 ft | 506 kts | 114° |
| 2026-05-05 17:05 | 34.73572 | 30.04366 | 37015 ft | 504 kts | 123° |
| 2026-05-05 17:05 | 34.69878 | 30.11599 | 37011 ft | 504 kts | 123° |
| 2026-05-05 17:06 | 34.66190 | 30.18850 | 37008 ft | 504 kts | 124° |
| 2026-05-05 17:06 | 34.62525 | 30.26043 | 37014 ft | 504 kts | 123° |
| 2026-05-05 17:07 | 34.58827 | 30.33291 | 37017 ft | 504 kts | 123° |
| 2026-05-05 17:07 | 34.55129 | 30.40525 | 37024 ft | 505 kts | 124° |
| 2026-05-05 17:08 | 34.51423 | 30.47763 | 37026 ft | 505 kts | 124° |
| 2026-05-05 17:08 | 34.47700 | 30.54994 | 37029 ft | 505 kts | 124° |
| 2026-05-05 17:09 | 34.43972 | 30.62220 | 37029 ft | 505 kts | 124° |
| 2026-05-05 17:09 | 34.40253 | 30.69439 | 37032 ft | 505 kts | 124° |
| 2026-05-05 17:10 | 34.36542 | 30.76615 | 37032 ft | 505 kts | 124° |
| 2026-05-05 17:10 | 34.32804 | 30.83817 | 37037 ft | 505 kts | 124° |
| 2026-05-05 17:11 | 34.29058 | 30.91018 | 37036 ft | 505 kts | 124° |
| 2026-05-05 17:11 | 34.25316 | 30.98213 | 37033 ft | 505 kts | 124° |
| 2026-05-05 17:12 | 34.21576 | 31.05395 | 37036 ft | 504 kts | 124° |
| 2026-05-05 17:12 | 34.17834 | 31.12559 | 37035 ft | 505 kts | 125° |
| 2026-05-05 17:13 | 34.14076 | 31.19728 | 37033 ft | 504 kts | 125° |
| 2026-05-05 17:13 | 34.11306 | 31.25012 | 37030 ft | 505 kts | 125° |
| 2026-05-05 17:14 | 34.07373 | 31.32241 | 37024 ft | 504 kts | 125° |
| 2026-05-05 17:14 | 34.03669 | 31.39418 | 37024 ft | 504 kts | 124° |
| 2026-05-05 17:15 | 33.99968 | 31.46594 | 37023 ft | 505 kts | 125° |
| 2026-05-05 17:15 | 33.96203 | 31.53749 | 37018 ft | 507 kts | 126° |
| 2026-05-05 17:16 | 33.92363 | 31.60943 | 37017 ft | 512 kts | 126° |
| 2026-05-05 17:16 | 33.88510 | 31.68172 | 37017 ft | 513 kts | 126° |
| 2026-05-05 17:17 | 33.84662 | 31.75420 | 37017 ft | 513 kts | 126° |
| 2026-05-05 17:17 | 33.80838 | 31.82613 | 37018 ft | 514 kts | 126° |
| 2026-05-05 17:18 | 33.77014 | 31.89774 | 37028 ft | 514 kts | 126° |
| 2026-05-05 17:18 | 33.73145 | 31.97001 | 37029 ft | 514 kts | 126° |
| 2026-05-05 17:19 | 33.69276 | 32.04228 | 37038 ft | 514 kts | 126° |
| 2026-05-05 17:19 | 33.65497 | 32.11275 | 37041 ft | 513 kts | 126° |
| 2026-05-05 17:20 | 33.61623 | 32.18472 | 37045 ft | 513 kts | 127° |
| 2026-05-05 17:20 | 33.57756 | 32.25651 | 37043 ft | 513 kts | 127° |
| 2026-05-05 17:21 | 33.53884 | 32.32826 | 37043 ft | 513 kts | 127° |
| 2026-05-05 17:22 | 33.48772 | 32.42269 | 37015 ft | 493 kts | 127° |
| 2026-05-05 17:22 | 33.45070 | 32.49105 | 37017 ft | 488 kts | 127° |
| 2026-05-05 17:23 | 33.41344 | 32.55944 | 36281 ft | 493 kts | 128° |
| 2026-05-05 17:23 | 33.39475 | 32.59370 | 35780 ft | 491 kts | 127° |
| 2026-05-05 17:23 | 33.37614 | 32.62781 | 35260 ft | 489 kts | 127° |
| 2026-05-05 17:23 | 33.35754 | 32.66190 | 34735 ft | 488 kts | 127° |
| 2026-05-05 17:24 | 33.33900 | 32.69581 | 34191 ft | 487 kts | 127° |
| 2026-05-05 17:24 | 33.32046 | 32.72974 | 33650 ft | 486 kts | 127° |
| 2026-05-05 17:24 | 33.30221 | 32.76312 | 33111 ft | 484 kts | 127° |
| 2026-05-05 17:24 | 33.28359 | 32.79718 | 32563 ft | 483 kts | 127° |
| 2026-05-05 17:25 | 33.26547 | 32.83033 | 32021 ft | 481 kts | 127° |
| 2026-05-05 17:25 | 33.25310 | 32.85294 | 31650 ft | 480 kts | 127° |
| 2026-05-05 17:25 | 33.22898 | 32.89694 | 30955 ft | 477 kts | 127° |
| 2026-05-05 17:25 | 33.21083 | 32.92991 | 30441 ft | 474 kts | 128° |
| 2026-05-05 17:26 | 33.19272 | 32.96272 | 29923 ft | 472 kts | 127° |
| 2026-05-05 17:26 | 33.17472 | 32.99536 | 29433 ft | 469 kts | 127° |
| 2026-05-05 17:26 | 33.15686 | 33.02776 | 28945 ft | 466 kts | 127° |
| 2026-05-05 17:26 | 33.13913 | 33.05994 | 28468 ft | 463 kts | 127° |
| 2026-05-05 17:27 | 33.12152 | 33.09194 | 27995 ft | 460 kts | 127° |
| 2026-05-05 17:27 | 33.10401 | 33.12372 | 27590 ft | 456 kts | 127° |
| 2026-05-05 17:27 | 33.08710 | 33.15520 | 27402 ft | 449 kts | 126° |
| 2026-05-05 17:27 | 33.07005 | 33.18752 | 27157 ft | 471 kts | 125° |
| 2026-05-05 17:28 | 33.05239 | 33.22127 | 26907 ft | 487 kts | 125° |
| 2026-05-05 17:28 | 33.03444 | 33.25579 | 26656 ft | 492 kts | 125° |
| 2026-05-05 17:28 | 33.01641 | 33.29044 | 26403 ft | 492 kts | 125° |
| 2026-05-05 17:28 | 32.99821 | 33.32487 | 26145 ft | 490 kts | 125° |
| 2026-05-05 17:29 | 32.98004 | 33.35911 | 25890 ft | 488 kts | 125° |
| 2026-05-05 17:29 | 32.96198 | 33.39328 | 25639 ft | 486 kts | 125° |
| 2026-05-05 17:29 | 32.94403 | 33.42727 | 25192 ft | 483 kts | 125° |
| 2026-05-05 17:29 | 32.92621 | 33.46094 | 24648 ft | 478 kts | 124° |
| 2026-05-05 17:30 | 32.90855 | 33.49428 | 24093 ft | 474 kts | 125° |
| 2026-05-05 17:30 | 32.89105 | 33.52726 | 23547 ft | 469 kts | 125° |
| 2026-05-05 17:30 | 32.87372 | 33.55985 | 22993 ft | 465 kts | 124° |
| 2026-05-05 17:30 | 32.85649 | 33.59220 | 22443 ft | 460 kts | 124° |
| 2026-05-05 17:31 | 32.83942 | 33.62422 | 21897 ft | 457 kts | 124° |
| 2026-05-05 17:31 | 32.82232 | 33.65632 | 21353 ft | 466 kts | 124° |
| 2026-05-05 17:31 | 32.80501 | 33.68877 | 20864 ft | 461 kts | 124° |
| 2026-05-05 17:31 | 32.78813 | 33.72046 | 20567 ft | 449 kts | 124° |
| 2026-05-05 17:32 | 32.77150 | 33.75164 | 20103 ft | 444 kts | 124° |
| 2026-05-05 17:32 | 32.75499 | 33.78251 | 19635 ft | 440 kts | 124° |
| 2026-05-05 17:32 | 32.73865 | 33.81304 | 19143 ft | 437 kts | 124° |
| 2026-05-05 17:32 | 32.72238 | 33.84342 | 18632 ft | 434 kts | 124° |
| 2026-05-05 17:33 | 32.70626 | 33.87350 | 18111 ft | 430 kts | 124° |
| 2026-05-05 17:33 | 32.69027 | 33.90337 | 17579 ft | 427 kts | 124° |
| 2026-05-05 17:33 | 32.67438 | 33.93301 | 17078 ft | 423 kts | 124° |
| 2026-05-05 17:33 | 32.65864 | 33.96231 | 16562 ft | 419 kts | 124° |
| 2026-05-05 17:34 | 32.64303 | 33.99132 | 16039 ft | 415 kts | 124° |
| 2026-05-05 17:34 | 32.62755 | 34.02005 | 15502 ft | 411 kts | 124° |
| 2026-05-05 17:34 | 32.61221 | 34.04853 | 14950 ft | 408 kts | 124° |
| 2026-05-05 17:34 | 32.59705 | 34.07664 | 14615 ft | 399 kts | 124° |
| 2026-05-05 17:35 | 32.58216 | 34.10423 | 13972 ft | 398 kts | 124° |
| 2026-05-05 17:35 | 32.56727 | 34.13182 | 13393 ft | 396 kts | 124° |
| 2026-05-05 17:35 | 32.55268 | 34.15891 | 13210 ft | 382 kts | 124° |
| 2026-05-05 17:35 | 32.53866 | 34.18493 | 13071 ft | 369 kts | 124° |
| 2026-05-05 17:36 | 32.52497 | 34.21023 | 12785 ft | 362 kts | 124° |
| 2026-05-05 17:36 | 32.51144 | 34.23518 | 12399 ft | 358 kts | 124° |
| 2026-05-05 17:36 | 32.49805 | 34.25988 | 12002 ft | 355 kts | 124° |
| 2026-05-05 17:36 | 32.48493 | 34.28405 | 11862 ft | 343 kts | 124° |
| 2026-05-05 17:37 | 32.47225 | 34.30737 | 11717 ft | 328 kts | 124° |
| 2026-05-05 17:37 | 32.46018 | 34.32960 | 11387 ft | 320 kts | 124° |
| 2026-05-05 17:37 | 32.44817 | 34.35188 | 10990 ft | 321 kts | 122° |
| 2026-05-05 17:37 | 32.43749 | 34.37505 | 10741 ft | 320 kts | 119° |
| 2026-05-05 17:38 | 32.42734 | 34.39831 | 10491 ft | 318 kts | 118° |
| 2026-05-05 17:38 | 32.41744 | 34.42161 | 10240 ft | 315 kts | 118° |
| 2026-05-05 17:38 | 32.40771 | 34.44470 | 9982 ft | 312 kts | 118° |
| 2026-05-05 17:38 | 32.39795 | 34.46774 | 9582 ft | 313 kts | 118° |
| 2026-05-05 17:39 | 32.38833 | 34.49026 | 9386 ft | 301 kts | 118° |
| 2026-05-05 17:39 | 32.37894 | 34.51212 | 9210 ft | 295 kts | 119° |
| 2026-05-05 17:39 | 32.37000 | 34.53284 | 8953 ft | 291 kts | 119° |
| 2026-05-05 17:39 | 32.36080 | 34.55411 | 8677 ft | 290 kts | 119° |
| 2026-05-05 17:40 | 32.35166 | 34.57524 | 8384 ft | 287 kts | 119° |
| 2026-05-05 17:40 | 32.34257 | 34.59622 | 8073 ft | 286 kts | 119° |
| 2026-05-05 17:40 | 32.33350 | 34.61710 | 7765 ft | 285 kts | 119° |
| 2026-05-05 17:40 | 32.32447 | 34.63792 | 7457 ft | 283 kts | 119° |
| 2026-05-05 17:41 | 32.31551 | 34.65855 | 7137 ft | 282 kts | 119° |
| 2026-05-05 17:41 | 32.30660 | 34.67911 | 6839 ft | 280 kts | 119° |
| 2026-05-05 17:41 | 32.29774 | 34.69957 | 6536 ft | 279 kts | 119° |
| 2026-05-05 17:41 | 32.28882 | 34.72015 | 6131 ft | 282 kts | 119° |
| 2026-05-05 17:42 | 32.27991 | 34.74069 | 5901 ft | 277 kts | 119° |
| 2026-05-05 17:42 | 32.27124 | 34.76068 | 5763 ft | 270 kts | 119° |
| 2026-05-05 17:42 | 32.26286 | 34.78011 | 5633 ft | 261 kts | 119° |
| 2026-05-05 17:42 | 32.25490 | 34.79891 | 5493 ft | 252 kts | 115° |
| 2026-05-05 17:43 | 32.24966 | 34.81834 | 5368 ft | 244 kts | 107° |
| 2026-05-05 17:43 | 32.24488 | 34.83719 | 5230 ft | 236 kts | 108° |
| 2026-05-05 17:43 | 32.24006 | 34.85555 | 4996 ft | 233 kts | 109° |
| 2026-05-05 17:43 | 32.23524 | 34.87374 | 4732 ft | 232 kts | 109° |
| 2026-05-05 17:44 | 32.23047 | 34.89188 | 4453 ft | 231 kts | 108° |
| 2026-05-05 17:44 | 32.22573 | 34.90997 | 4184 ft | 229 kts | 108° |
| 2026-05-05 17:44 | 32.22110 | 34.92767 | 4060 ft | 222 kts | 108° |
| 2026-05-05 17:44 | 32.21663 | 34.94479 | 4012 ft | 216 kts | 109° |
| 2026-05-05 17:45 | 32.21218 | 34.96171 | 4012 ft | 216 kts | 109° |
| 2026-05-05 17:45 | 32.20667 | 34.97816 | 3898 ft | 215 kts | 128° |
| 2026-05-05 17:45 | 32.19576 | 34.98924 | 3708 ft | 204 kts | 159° |
| 2026-05-05 17:45 | 32.18237 | 34.99254 | 3447 ft | 194 kts | 187° |
| 2026-05-05 17:46 | 32.16889 | 34.99128 | 3132 ft | 194 kts | 190° |
| 2026-05-05 17:46 | 32.15574 | 34.98862 | 3013 ft | 190 kts | 207° |
| 2026-05-05 17:46 | 32.14400 | 34.98170 | 2887 ft | 188 kts | 213° |
| 2026-05-05 17:46 | 32.13259 | 34.97431 | 2673 ft | 185 kts | 213° |
| 2026-05-05 17:47 | 32.12149 | 34.96711 | 2433 ft | 178 kts | 213° |
| 2026-05-05 17:47 | 32.11080 | 34.96019 | 2210 ft | 174 kts | 213° |
| 2026-05-05 17:47 | 32.10027 | 34.95337 | 1985 ft | 172 kts | 212° |
| 2026-05-05 17:47 | 32.08972 | 34.94653 | 1747 ft | 174 kts | 212° |
| 2026-05-05 17:48 | 32.07956 | 34.93997 | 1549 ft | 156 kts | 212° |
| 2026-05-05 17:48 | 32.07047 | 34.93410 | 1333 ft | 144 kts | 212° |
| 2026-05-05 17:48 | 32.06186 | 34.92853 | 1112 ft | 139 kts | 212° |
| 2026-05-05 17:48 | 32.05345 | 34.92304 | 899 ft | 138 kts | 212° |
| 2026-05-05 17:49 | 32.04505 | 34.91769 | 745 ft | 137 kts | 212° |
| 2026-05-05 17:49 | 32.03672 | 34.91230 | 579 ft | 137 kts | 212° |
| 2026-05-05 17:49 | 32.02842 | 34.90684 | 408 ft | 137 kts | 212° |
| 2026-05-05 17:49 | 32.02006 | 34.90149 | 229 ft | 137 kts | 212° |
| 2026-05-05 17:50 | 32.01196 | 34.89624 | 136 ft | 122 kts | 211° |
| 2026-05-05 17:50 | 32.00552 | 34.89203 | 119 ft | 84 kts | 209° |
| 2026-05-05 17:50 | 32.00281 | 34.89025 | 119 ft | 13 kts | 216° |
| 2026-05-05 17:50 | 32.00184 | 34.88911 | 120 ft | 23 kts | 232° |
| 2026-05-05 17:51 | 32.00103 | 34.88764 | 120 ft | 20 kts | 239° |
| 2026-05-05 17:51 | 32.00101 | 34.88630 | 120 ft | 17 kts | 300° |
| 2026-05-05 17:51 | 32.00153 | 34.88529 | 120 ft | 14 kts | 302° |
| 2026-05-05 17:51 | 32.00212 | 34.88419 | 120 ft | 17 kts | 302° |
| 2026-05-05 17:52 | 32.00282 | 34.88285 | 120 ft | 20 kts | 299° |
| 2026-05-05 17:52 | 32.00359 | 34.88136 | 120 ft | 23 kts | 300° |
| 2026-05-05 17:52 | 32.00448 | 34.87965 | 120 ft | 25 kts | 302° |
| 2026-05-05 17:52 | 32.00539 | 34.87789 | 120 ft | 23 kts | 299° |
| 2026-05-05 17:53 | 32.00554 | 34.87658 | 120 ft | 18 kts | 236° |
| 2026-05-05 17:53 | 32.00489 | 34.87584 | 120 ft | 14 kts | 193° |
| 2026-05-05 17:53 | 32.00441 | 34.87570 | 120 ft | 6 kts | 212° |
| 2026-05-05 17:53 | 32.00428 | 34.87557 | 120 ft | 3 kts | 224° |
| 2026-05-05 17:54 | 32.00424 | 34.87553 | 120 ft | 0 kts | 225° |